CheckWX is a tool to help pilots better visualize weather data.  It is not intended as a substitute for an official pre-flight weather briefing.

22:36:29 UTC

HESG METAR
Sohag Airport
Sohag, Egypt
Current

36 mins ago

HESG 152200Z 28008KT CAVOK 31/11 Q1006 NOSIG
Observed
Jul-15 @ 22:00 UTC
Wind
  • 280° at 8 KTS
Visibility
10,000+ meters
Flight Rules
VFR
Cloud Levels
  • Clear skies
Temperature
31°C / 88°F
Dewpoint
11°C / 52°F
Humidity
29%
Altimeter
29.7" Hg
Pressure
1005.92 hPa
Previous

2 hours ago

HESG 152100Z 29006KT CAVOK 32/11 Q1007 NOSIG
Observed
Jul-15 @ 21:00 UTC
Wind
  • 290° at 6 KTS
Visibility
10,000+ meters
Flight Rules
VFR
Cloud Levels
  • Clear skies
Temperature
32°C / 90°F
Dewpoint
11°C / 52°F
Humidity
27%
Altimeter
29.73" Hg
Pressure
1006.92 hPa
Previous

3 hours ago

HESG 152000Z 32006KT CAVOK 34/12 Q1007 NOSIG
Observed
Jul-15 @ 20:00 UTC
Wind
  • 320° at 6 KTS
Visibility
10,000+ meters
Flight Rules
VFR
Cloud Levels
  • Clear skies
Temperature
34°C / 93°F
Dewpoint
12°C / 54°F
Humidity
26%
Altimeter
29.73" Hg
Pressure
1006.92 hPa